Time;durP1;ratioP1;P1;durP2;ratioP2;P2;SDS_P1;SDS_P2;PMS_P1;PMS_P2;Temp;Humidity;BMP_temperature;BMP_pressure;BME280_temperature;BME280_humidity;BME280_pressure;Samples;Min_cycle;Max_cycle;Signal;HPM_P1;HPM_P2
2023/03/15 00:01:18;;;;;;;;;;;;;;;5.92;100.00;98262.09;5007555;28;20004;-48
2023/03/15 00:03:44;;;;;;;;;;;;;;;6.08;100.00;98278.75;5007203;28;19956;-49
2023/03/15 00:06:10;;;;;;;;;;;;;;;5.21;100.00;98266.31;5009824;28;19920;-50
2023/03/15 00:08:35;;;;;;;;;;;;;;;5.96;100.00;98286.75;5018860;28;20433;-49
2023/03/15 00:11:00;;;;;;;;;;;;;;;6.80;100.00;98274.25;5007263;28;19921;-50
2023/03/15 00:13:25;;;;;;;;;;;;;;;5.89;100.00;98263.00;5010164;28;19917;-49
2023/03/15 00:15:52;;;;;;;;;;;;;;;6.05;100.00;98296.72;5001800;28;19925;-49
2023/03/15 00:18:18;;;;;;;;;;;;;;;6.49;100.00;98281.94;5011212;28;20402;-49
2023/03/15 00:20:43;;;;;;;;;;;;;;;5.91;100.00;98283.41;5009317;28;20087;-48
2023/03/15 00:23:08;;;;;;;;;;;;;;;5.91;100.00;98301.28;5006710;28;21066;-50
2023/03/15 00:25:34;;;;;;;;;;;;;;;6.47;100.00;98294.75;5000106;28;19920;-52
2023/03/15 00:27:59;;;;;;;;;;;;;;;5.90;100.00;98282.56;5007980;28;19983;-50
2023/03/15 00:30:24;;;;;;;;;;;;;;;6.14;100.00;98300.78;5005661;28;19975;-48
2023/03/15 00:32:52;;;;;;;;;;;;;;;6.55;100.00;98275.84;5006800;28;19971;-49
2023/03/15 00:35:18;;;;;;;;;;;;;;;5.67;100.00;98290.78;5008972;28;20291;-49
2023/03/15 00:37:43;;;;;;;;;;;;;;;5.13;100.00;98332.00;5018387;28;19964;-51
2023/03/15 00:40:09;;;;;;;;;;;;;;;5.10;100.00;98357.59;5001944;28;19917;-50
2023/03/15 00:42:34;;;;;;;;;;;;;;;4.80;100.00;98398.13;5007365;28;19928;-49
2023/03/15 00:44:59;;;;;;;;;;;;;;;4.72;100.00;98445.88;5005958;28;20047;-48
2023/03/15 00:47:24;;;;;;;;;;;;;;;4.95;100.00;98509.25;5009978;28;19922;-49
2023/03/15 00:49:49;;;;;;;;;;;;;;;4.41;100.00;98578.97;4999934;28;19975;-49
2023/03/15 00:52:15;;;;;;;;;;;;;;;4.07;100.00;98670.31;5002230;28;19918;-48
2023/03/15 00:54:40;;;;;;;;;;;;;;;4.13;100.00;98770.50;5003355;28;19917;-49
2023/03/15 00:57:06;;;;;;;;;;;;;;;3.29;100.00;98868.72;5004959;28;19921;-51
2023/03/15 00:59:33;;;;;;;;;;;;;;;3.77;100.00;99032.28;5007890;28;20001;-49
2023/03/15 01:02:03;;;;;;;;;;;;;;;4.26;100.00;99150.16;5021589;28;19971;-49
2023/03/15 01:04:28;;;;;;;;;;;;;;;4.32;100.00;99252.13;5006570;28;19964;-50
2023/03/15 01:06:53;;;;;;;;;;;;;;;6.53;100.00;99360.59;5006583;28;19955;-49
2023/03/15 01:09:18;;;;;;;;;;;;;;;6.12;100.00;99285.13;5008173;28;19921;-49
2023/03/15 01:11:43;;;;;;;;;;;;;;;6.25;100.00;99273.91;5006302;28;19921;-51
2023/03/15 01:14:09;;;;;;;;;;;;;;;5.83;100.00;99227.38;5012269;28;19924;-52
2023/03/15 01:16:34;;;;;;;;;;;;;;;5.49;100.00;99206.41;5003023;28;19925;-52
2023/03/15 01:18:59;;;;;;;;;;;;;;;6.49;100.00;99254.88;5005832;28;20454;-51
2023/03/15 01:21:25;;;;;;;;;;;;;;;6.84;100.00;99219.47;5005154;28;19924;-49
2023/03/15 01:23:50;;;;;;;;;;;;;;;7.10;100.00;99134.63;5002945;28;19923;-50
2023/03/15 01:26:15;;;;;;;;;;;;;;;6.83;100.00;99059.09;5008346;28;21035;-49
2023/03/15 01:28:41;;;;;;;;;;;;;;;6.00;100.00;98979.31;5004450;28;19924;-50
2023/03/15 01:31:06;;;;;;;;;;;;;;;5.59;100.00;99028.38;5006493;28;20076;-49
2023/03/15 01:33:31;;;;;;;;;;;;;;;5.07;100.00;99069.75;5004210;28;20121;-51
2023/03/15 01:36:00;;;;;;;;;;;;;;;6.33;100.00;99180.91;5010241;28;20394;-52
2023/03/15 01:38:25;;;;;;;;;;;;;;;4.72;100.00;99137.16;5005626;28;19917;-48
2023/03/15 01:40:50;;;;;;;;;;;;;;;5.68;100.00;99248.00;5003737;28;20425;-49
2023/03/15 01:43:17;;;;;;;;;;;;;;;5.97;100.00;99272.47;5008134;28;19971;-52
2023/03/15 01:46:02;;;;;;;;;;;;;;;6.46;100.00;99264.31;5012000;28;19921;-49
2023/03/15 01:48:27;;;;;;;;;;;;;;;5.18;100.00;99221.97;5011548;28;19924;-50
2023/03/15 01:50:53;;;;;;;;;;;;;;;5.82;100.00;99255.53;5008506;28;19917;-49
2023/03/15 01:53:19;;;;;;;;;;;;;;;6.50;100.00;99235.28;5007686;28;19960;-52
2023/03/15 01:55:44;;;;;;;;;;;;;;;6.84;100.00;99173.41;5024597;28;19952;-52
2023/03/15 01:58:09;;;;;;;;;;;;;;;5.87;100.00;99060.38;5014408;28;20349;-50
2023/03/15 02:00:34;;;;;;;;;;;;;;;6.46;100.00;99067.31;5010810;28;20349;-51
2023/03/15 02:03:07;;;;;;;;;;;;;;;6.07;100.00;99023.53;5002998;28;20369;-50
2023/03/15 02:05:34;;;;;;;;;;;;;;;5.81;100.00;99032.31;5009507;28;19925;-50
2023/03/15 02:07:59;;;;;;;;;;;;;;;5.70;100.00;99041.81;5009071;28;19924;-50
2023/03/15 02:10:54;;;;;;;;;;;;;;;5.69;100.00;99075.09;5008059;28;20657;-51
2023/03/15 02:13:21;;;;;;;;;;;;;;;5.64;100.00;99109.19;5006083;28;19984;-50
2023/03/15 02:15:46;;;;;;;;;;;;;;;5.90;100.00;99155.78;5005600;28;19917;-52
2023/03/15 02:18:12;;;;;;;;;;;;;;;5.82;100.00;99161.81;5010085;28;19982;-50
2023/03/15 02:20:37;;;;;;;;;;;;;;;5.09;100.00;99165.03;5002818;28;19940;-50
2023/03/15 02:23:04;;;;;;;;;;;;;;;5.58;100.00;99226.75;5006521;28;19953;-51
2023/03/15 02:25:33;;;;;;;;;;;;;;;5.92;100.00;99261.41;5007418;28;19931;-51
2023/03/15 02:27:58;;;;;;;;;;;;;;;5.15;100.00;99241.53;4968523;28;19914;-50
2023/03/15 02:30:24;;;;;;;;;;;;;;;5.25;100.00;99253.41;5006108;28;19917;-52
2023/03/15 02:32:49;;;;;;;;;;;;;;;5.39;100.00;99286.50;5009999;28;19917;-49
2023/03/15 02:35:28;;;;;;;;;;;;;;;5.60;100.00;99339.16;5005276;28;19928;-49
2023/03/15 02:37:53;;;;;;;;;;;;;;;5.63;100.00;99350.22;5011744;28;20009;-49
2023/03/15 02:40:19;;;;;;;;;;;;;;;5.32;100.00;99359.75;5008695;28;19924;-49
2023/03/15 02:42:45;;;;;;;;;;;;;;;4.94;100.00;99372.69;5004037;28;20449;-51
2023/03/15 02:45:10;;;;;;;;;;;;;;;4.46;100.00;99418.69;5024068;28;20032;-48
2023/03/15 02:47:35;;;;;;;;;;;;;;;4.58;100.00;99491.78;5010063;28;19925;-49
2023/03/15 02:50:01;;;;;;;;;;;;;;;5.01;100.00;99558.13;5005277;28;19975;-50
2023/03/15 02:52:26;;;;;;;;;;;;;;;5.46;100.00;99602.34;5010004;28;19917;-49
2023/03/15 02:54:52;;;;;;;;;;;;;;;4.53;100.00;99598.06;5009766;28;20104;-50
2023/03/15 02:57:18;;;;;;;;;;;;;;;4.63;100.00;99649.94;5008991;28;19925;-50
2023/03/15 02:59:44;;;;;;;;;;;;;;;4.30;100.00;99692.34;5011361;28;19917;-50
2023/03/15 03:02:10;;;;;;;;;;;;;;;4.24;100.00;99748.41;5009176;28;20716;-49
2023/03/15 03:04:36;;;;;;;;;;;;;;;4.64;100.00;99830.25;5011447;28;19922;-50
2023/03/15 03:07:01;;;;;;;;;;;;;;;4.63;100.00;99874.44;5007826;28;20424;-50
2023/03/15 03:09:26;;;;;;;;;;;;;;;4.52;100.00;99912.66;5011023;28;20455;-51
2023/03/15 03:11:52;;;;;;;;;;;;;;;4.58;100.00;99940.75;5008364;28;19965;-50
2023/03/15 03:14:17;;;;;;;;;;;;;;;4.33;100.00;99955.00;5005491;28;19924;-50
2023/03/15 03:16:42;;;;;;;;;;;;;;;4.63;100.00;100004.56;5009149;28;19925;-49
2023/03/15 03:19:08;;;;;;;;;;;;;;;4.53;100.00;100021.50;5008909;28;19921;-51
2023/03/15 03:21:33;;;;;;;;;;;;;;;4.37;100.00;100048.53;5004380;28;19929;-50
2023/03/15 03:23:58;;;;;;;;;;;;;;;4.41;100.00;100088.53;5008330;28;19917;-51
2023/03/15 03:26:26;;;;;;;;;;;;;;;4.32;100.00;100119.06;5006237;28;19914;-50
2023/03/15 03:28:52;;;;;;;;;;;;;;;4.31;100.00;100155.56;5007399;28;20401;-50
2023/03/15 03:31:18;;;;;;;;;;;;;;;4.59;100.00;100211.19;5009594;28;19921;-48
2023/03/15 03:33:44;;;;;;;;;;;;;;;4.51;100.00;100243.38;5004565;28;19913;-49
2023/03/15 03:36:11;;;;;;;;;;;;;;;4.13;100.00;100251.41;5006721;28;19917;-51
2023/03/15 03:38:37;;;;;;;;;;;;;;;4.40;100.00;100301.94;5008781;28;19964;-50
2023/03/15 03:41:02;;;;;;;;;;;;;;;4.60;100.00;100345.56;5004938;28;19945;-50
2023/03/15 03:43:28;;;;;;;;;;;;;;;4.56;100.00;100358.25;5007240;28;20012;-51
2023/03/15 03:45:53;;;;;;;;;;;;;;;4.26;100.00;100363.75;5005192;28;19917;-52
2023/03/15 03:48:18;;;;;;;;;;;;;;;4.34;100.00;100377.50;5009070;28;19996;-50
2023/03/15 03:50:43;;;;;;;;;;;;;;;4.51;100.00;100411.75;5010073;28;20015;-52
2023/03/15 03:53:08;;;;;;;;;;;;;;;4.59;100.00;100429.75;5009082;28;20173;-50
2023/03/15 03:55:34;;;;;;;;;;;;;;;3.95;100.00;100392.16;5005535;28;20012;-52
2023/03/15 03:57:59;;;;;;;;;;;;;;;4.51;100.00;100462.78;5007637;28;19952;-50
2023/03/15 04:00:25;;;;;;;;;;;;;;;4.30;100.00;100467.53;5005091;28;19917;-52
2023/03/15 04:02:52;;;;;;;;;;;;;;;3.87;100.00;100461.66;5006719;28;19925;-52
2023/03/15 04:05:18;;;;;;;;;;;;;;;3.92;100.00;100498.28;5000628;28;20016;-49
2023/03/15 04:07:43;;;;;;;;;;;;;;;3.92;100.00;100536.50;5004484;28;20056;-50
2023/03/15 04:10:13;;;;;;;;;;;;;;;3.79;100.00;100558.38;5007720;28;19921;-50
2023/03/15 04:12:38;;;;;;;;;;;;;;;4.42;100.00;100623.31;5005774;28;19996;-49
2023/03/15 04:15:04;;;;;;;;;;;;;;;4.03;100.00;100620.84;5006248;28;20040;-50
2023/03/15 04:17:29;;;;;;;;;;;;;;;4.32;100.00;100659.69;5009836;28;19924;-52
2023/03/15 04:19:54;;;;;;;;;;;;;;;4.43;100.00;100678.63;5007132;28;19918;-52
2023/03/15 04:22:19;;;;;;;;;;;;;;;4.23;100.00;100659.50;5007976;28;20278;-51
2023/03/15 04:24:44;;;;;;;;;;;;;;;4.83;100.00;100704.91;5008735;28;20006;-50
2023/03/15 04:27:13;;;;;;;;;;;;;;;4.18;100.00;100673.03;5010835;28;19999;-49
2023/03/15 04:29:40;;;;;;;;;;;;;;;4.26;100.00;100685.91;5007895;28;19924;-52
2023/03/15 04:32:06;;;;;;;;;;;;;;;3.87;100.00;100671.50;5003093;28;20219;-51
2023/03/15 04:34:31;;;;;;;;;;;;;;;3.92;100.00;100689.44;5004993;28;20255;-49
2023/03/15 04:36:56;;;;;;;;;;;;;;;3.87;100.00;100706.31;5003279;28;20063;-49
2023/03/15 04:39:22;;;;;;;;;;;;;;;4.09;100.00;100731.47;5007690;28;20040;-48
2023/03/15 04:41:47;;;;;;;;;;;;;;;3.89;100.00;100736.13;5005866;28;19929;-48
2023/03/15 04:44:15;;;;;;;;;;;;;;;4.24;100.00;100774.28;5008997;28;19952;-47
2023/03/15 04:46:40;;;;;;;;;;;;;;;4.08;100.00;100755.25;5006367;28;19987;-48
2023/03/15 04:49:05;;;;;;;;;;;;;;;3.83;100.00;100742.75;5001392;28;20449;-48
2023/03/15 04:51:32;;;;;;;;;;;;;;;3.91;100.00;100765.06;5005386;28;20011;-48
2023/03/15 04:53:57;;;;;;;;;;;;;;;3.89;100.00;100776.03;5006277;28;19925;-50
2023/03/15 04:56:22;;;;;;;;;;;;;;;4.03;100.00;100795.06;5005965;28;19917;-48
2023/03/15 04:58:47;;;;;;;;;;;;;;;3.94;100.00;100799.94;5007727;28;19921;-49
2023/03/15 05:01:13;;;;;;;;;;;;;;;4.02;100.00;100818.84;5007362;28;20374;-48
2023/03/15 05:03:38;;;;;;;;;;;;;;;4.08;100.00;100839.41;5020774;28;20447;-48
2023/03/15 05:06:06;;;;;;;;;;;;;;;4.25;100.00;100854.22;5003688;28;20489;-48
2023/03/15 05:08:33;;;;;;;;;;;;;;;4.17;100.00;100854.91;5010879;28;20041;-49
2023/03/15 05:10:58;;;;;;;;;;;;;;;4.05;100.00;100864.78;5000504;28;20357;-48
2023/03/15 05:13:23;;;;;;;;;;;;;;;3.56;100.00;100849.13;5004237;28;19914;-48
2023/03/15 05:15:48;;;;;;;;;;;;;;;3.72;100.00;100869.94;5002436;28;19921;-49
2023/03/15 05:18:14;;;;;;;;;;;;;;;3.95;100.00;100898.53;5007055;28;19921;-47
2023/03/15 05:20:39;;;;;;;;;;;;;;;3.90;100.00;100900.09;5009377;28;19922;-48
2023/03/15 05:23:04;;;;;;;;;;;;;;;3.81;100.00;100910.03;5013247;28;19921;-50
2023/03/15 05:25:29;;;;;;;;;;;;;;;3.99;100.00;100938.56;5010474;28;19946;-48
2023/03/15 05:27:55;;;;;;;;;;;;;;;3.86;100.00;100936.53;5008760;28;20374;-47
2023/03/15 05:30:20;;;;;;;;;;;;;;;4.03;100.00;100955.66;5008120;28;20383;-47
2023/03/15 05:32:45;;;;;;;;;;;;;;;3.46;100.00;100922.72;5009172;28;20097;-48
2023/03/15 05:35:11;;;;;;;;;;;;;;;3.75;100.00;100956.63;5026387;28;20394;-48
2023/03/15 05:37:36;;;;;;;;;;;;;;;4.11;100.00;100987.34;5011498;28;19977;-47
2023/03/15 05:40:03;;;;;;;;;;;;;;;4.09;100.00;100985.56;5010766;28;19999;-48
2023/03/15 05:42:29;;;;;;;;;;;;;;;3.97;100.00;100978.47;5008597;28;19995;-48
2023/03/15 05:44:54;;;;;;;;;;;;;;;3.92;100.00;100974.91;5006834;28;19917;-48
2023/03/15 05:47:20;;;;;;;;;;;;;;;4.38;100.00;100991.44;5010686;28;20812;-50
2023/03/15 05:49:45;;;;;;;;;;;;;;;4.17;100.00;100976.41;5017531;28;21033;-49
2023/03/15 05:52:10;;;;;;;;;;;;;;;4.22;100.00;100969.78;5027182;28;20077;-49
2023/03/15 05:54:36;;;;;;;;;;;;;;;4.13;100.00;100950.00;5005101;28;19924;-48
2023/03/15 05:57:01;;;;;;;;;;;;;;;4.38;100.00;100950.63;5009898;28;20357;-48
2023/03/15 05:59:26;;;;;;;;;;;;;;;4.31;100.00;100929.19;4999368;28;19918;-48
2023/03/15 06:01:51;;;;;;;;;;;;;;;4.12;100.00;100902.34;5001320;28;20474;-47
2023/03/15 06:04:17;;;;;;;;;;;;;;;4.64;100.00;100932.50;5011862;28;19917;-48
2023/03/15 06:06:42;;;;;;;;;;;;;;;4.51;100.00;100904.13;5011255;28;19940;-47
2023/03/15 06:09:07;;;;;;;;;;;;;;;4.32;100.00;100868.84;5002506;28;19916;-48
2023/03/15 06:11:32;;;;;;;;;;;;;;;3.99;100.00;100854.44;5028704;28;19983;-48
2023/03/15 06:13:57;;;;;;;;;;;;;;;4.44;100.00;100894.63;5027946;28;19917;-48
2023/03/15 06:16:23;;;;;;;;;;;;;;;4.80;100.00;100919.25;5009785;28;19921;-48
2023/03/15 06:18:48;;;;;;;;;;;;;;;4.23;100.00;100874.59;5004774;28;19967;-47
2023/03/15 06:21:13;;;;;;;;;;;;;;;3.66;100.00;100860.41;5004800;28;20271;-47
2023/03/15 06:23:38;;;;;;;;;;;;;;;4.17;100.00;100925.41;5004568;28;20556;-47
2023/03/15 06:26:04;;;;;;;;;;;;;;;3.90;100.00;100930.69;5009245;28;19914;-50
2023/03/15 06:28:29;;;;;;;;;;;;;;;3.84;100.00;100945.84;5005466;28;20290;-48
2023/03/15 06:30:54;;;;;;;;;;;;;;;4.02;100.00;100981.16;4999823;28;20340;-47
2023/03/15 06:33:20;;;;;;;;;;;;;;;4.16;100.00;100990.88;5005904;28;20361;-46
2023/03/15 06:35:45;;;;;;;;;;;;;;;4.02;100.00;100988.78;5005992;28;19917;-48
2023/03/15 06:38:12;;;;;;;;;;;;;;;4.18;100.00;101009.63;5006474;28;19960;-48
2023/03/15 06:40:37;;;;;;;;;;;;;;;4.28;100.00;101022.59;5009688;28;20413;-48
2023/03/15 06:43:05;;;;;;;;;;;;;;;4.12;100.00;101009.44;5007117;28;19932;-48
2023/03/15 06:45:30;;;;;;;;;;;;;;;4.37;100.00;101016.06;5012609;28;20063;-49
2023/03/15 06:47:55;;;;;;;;;;;;;;;4.34;100.00;101018.53;5004860;28;20007;-48
2023/03/15 06:50:21;;;;;;;;;;;;;;;4.23;100.00;101027.59;5011695;28;19921;-49
2023/03/15 06:52:46;;;;;;;;;;;;;;;3.75;100.00;100994.84;5006997;28;19939;-47
2023/03/15 06:55:16;;;;;;;;;;;;;;;4.35;100.00;101047.44;5008987;28;19917;-48
2023/03/15 06:57:41;;;;;;;;;;;;;;;4.34;100.00;101048.28;5012557;28;20127;-48
2023/03/15 07:00:10;;;;;;;;;;;;;;;4.35;100.00;101045.75;5002661;28;20057;-48
2023/03/15 07:02:36;;;;;;;;;;;;;;;4.40;100.00;101045.88;5011995;28;19921;-48
2023/03/15 07:05:01;;;;;;;;;;;;;;;4.25;100.00;101035.28;5008468;28;19913;-48
2023/03/15 07:07:26;;;;;;;;;;;;;;;4.27;100.00;101031.09;5025111;28;20141;-48
2023/03/15 07:09:52;;;;;;;;;;;;;;;4.60;100.00;101057.47;5003561;28;19976;-48
2023/03/15 07:21:26;;;;;;;;;;;;;;;4.69;100.00;101066.19;5007856;28;20055;-48
2023/03/15 07:23:51;;;;;;;;;;;;;;;4.09;100.00;101039.97;5001347;28;20007;-48
2023/03/15 07:26:16;;;;;;;;;;;;;;;4.02;100.00;101042.31;5004791;28;20363;-47
2023/03/15 07:28:43;;;;;;;;;;;;;;;3.94;100.00;101044.66;5004467;28;19928;-49
2023/03/15 07:31:08;;;;;;;;;;;;;;;4.16;100.00;101062.25;5007878;28;19922;-47
2023/03/15 07:33:35;;;;;;;;;;;;;;;4.43;100.00;101084.25;5004710;28;20287;-47
2023/03/15 07:36:02;;;;;;;;;;;;;;;4.37;100.00;101082.38;5004171;28;20389;-48
2023/03/15 07:38:28;;;;;;;;;;;;;;;4.42;100.00;101095.25;5002940;28;19924;-49
2023/03/15 07:40:53;;;;;;;;;;;;;;;4.46;100.00;101111.53;5009684;28;19917;-47
2023/03/15 07:43:18;;;;;;;;;;;;;;;4.15;100.00;101091.16;4999570;28;20060;-46
2023/03/15 07:45:44;;;;;;;;;;;;;;;4.21;100.00;101109.97;5005431;28;19962;-49
2023/03/15 07:48:09;;;;;;;;;;;;;;;4.50;100.00;101134.59;5005355;28;19917;-48
2023/03/15 07:50:35;;;;;;;;;;;;;;;4.59;100.00;101144.19;5003297;28;19917;-49
2023/03/15 07:53:02;;;;;;;;;;;;;;;4.47;100.00;101136.19;5005829;28;19921;-48
2023/03/15 07:55:27;;;;;;;;;;;;;;;4.70;100.00;101153.00;5006953;28;19959;-48
2023/03/15 07:57:52;;;;;;;;;;;;;;;4.51;100.00;101136.31;5010909;28;19921;-48
2023/03/15 08:00:18;;;;;;;;;;;;;;;4.90;100.00;101155.19;5005318;28;19924;-47
2023/03/15 08:02:43;;;;;;;;;;;;;;;5.26;100.00;101172.28;5004782;28;20375;-49
2023/03/15 08:05:09;;;;;;;;;;;;;;;5.03;100.00;101145.34;5003304;28;19917;-48
2023/03/15 08:07:35;;;;;;;;;;;;;;;5.08;100.00;101142.91;5005941;28;19928;-48
2023/03/15 08:10:01;;;;;;;;;;;;;;;5.06;100.00;101121.56;5002611;28;20274;-48
2023/03/15 08:12:26;;;;;;;;;;;;;;;5.12;100.00;101111.50;5005184;28;19971;-48
2023/03/15 08:14:51;;;;;;;;;;;;;;;5.11;100.00;101108.91;5008656;28;19925;-48
2023/03/15 08:17:17;;;;;;;;;;;;;;;5.12;100.00;101091.06;5008299;28;19921;-47
2023/03/15 08:19:42;;;;;;;;;;;;;;;5.09;100.00;101090.16;5012329;28;19921;-48
2023/03/15 08:22:08;;;;;;;;;;;;;;;4.72;100.00;101079.00;5009402;28;19971;-48
2023/03/15 08:24:33;;;;;;;;;;;;;;;4.87;100.00;101083.66;5010343;28;20271;-48
2023/03/15 08:26:58;;;;;;;;;;;;;;;4.84;100.00;101068.28;5009477;28;19917;-47
2023/03/15 08:29:24;;;;;;;;;;;;;;;5.03;100.00;101080.63;5007976;28;19925;-47
2023/03/15 08:31:49;;;;;;;;;;;;;;;4.77;100.00;101057.03;5005037;28;19914;-49
2023/03/15 08:34:15;;;;;;;;;;;;;;;5.20;100.00;101073.34;5011867;28;19918;-50
2023/03/15 08:36:40;;;;;;;;;;;;;;;4.92;100.00;101052.28;5013571;28;19917;-48
2023/03/15 08:39:05;;;;;;;;;;;;;;;4.87;100.00;101068.34;5004108;28;20096;-47
2023/03/15 08:41:31;;;;;;;;;;;;;;;4.98;100.00;101062.66;5010131;28;19974;-50
2023/03/15 08:43:56;;;;;;;;;;;;;;;5.01;100.00;101062.72;5005893;28;20072;-50
2023/03/15 08:46:21;;;;;;;;;;;;;;;4.99;100.00;101053.28;5007950;28;19949;-48
2023/03/15 08:48:46;;;;;;;;;;;;;;;4.96;100.00;101054.09;5003192;28;20390;-48
2023/03/15 08:51:12;;;;;;;;;;;;;;;4.67;100.00;101027.00;5010817;28;20302;-48
2023/03/15 08:53:37;;;;;;;;;;;;;;;5.00;100.00;101050.78;5009579;28;19918;-48
2023/03/15 08:56:03;;;;;;;;;;;;;;;5.14;100.00;101052.81;5003925;28;20166;-48
2023/03/15 08:58:28;;;;;;;;;;;;;;;5.28;100.00;101041.19;5008474;28;19920;-49
2023/03/15 09:00:54;;;;;;;;;;;;;;;5.93;100.00;101081.78;5007419;28;20007;-48
2023/03/15 09:03:21;;;;;;;;;;;;;;;5.94;100.00;101044.28;5008175;28;19925;-50
2023/03/15 09:05:46;;;;;;;;;;;;;;;6.17;100.00;101043.06;5006978;28;20572;-50
2023/03/15 09:08:12;;;;;;;;;;;;;;;6.10;100.00;100994.31;5006726;28;19988;-48
2023/03/15 09:10:38;;;;;;;;;;;;;;;5.96;100.00;100948.03;5003344;28;20044;-49
2023/03/15 09:13:03;;;;;;;;;;;;;;;5.48;100.00;100895.13;5009425;28;19968;-48
2023/03/15 09:15:28;;;;;;;;;;;;;;;5.76;100.00;100933.16;5008755;28;19922;-48
2023/03/15 09:17:54;;;;;;;;;;;;;;;6.33;100.00;100959.75;5022979;28;19964;-49
2023/03/15 09:20:21;;;;;;;;;;;;;;;6.47;100.00;100940.38;5004795;28;20609;-48
2023/03/15 09:22:56;;;;;;;;;;;;;;;5.96;100.00;100884.09;5006020;28;19921;-49
2023/03/15 09:25:21;;;;;;;;;;;;;;;5.63;100.00;100846.84;5004107;28;19917;-48
2023/03/15 09:27:47;;;;;;;;;;;;;;;5.80;100.00;100881.25;5020280;28;20509;-48
2023/03/15 09:30:12;;;;;;;;;;;;;;;5.30;100.00;100844.53;4998846;28;19917;-48
2023/03/15 09:32:38;;;;;;;;;;;;;;;4.92;100.00;100835.28;4999130;28;20846;-49
2023/03/15 09:35:03;;;;;;;;;;;;;;;4.38;100.00;100828.19;5007588;28;19927;-49
2023/03/15 09:37:29;;;;;;;;;;;;;;;4.29;100.00;100859.44;5004301;28;19948;-49
2023/03/15 09:39:54;;;;;;;;;;;;;;;4.64;100.00;100912.94;5005461;28;19917;-50
2023/03/15 09:42:21;;;;;;;;;;;;;;;5.23;100.00;100981.50;5007135;28;20829;-48
2023/03/15 09:44:47;;;;;;;;;;;;;;;5.75;100.00;101023.47;5003896;28;19956;-49
2023/03/15 09:47:31;;;;;;;;;;;;;;;6.10;100.00;101031.00;5004170;28;19921;-48
2023/03/15 09:49:57;;;;;;;;;;;;;;;6.42;100.00;101017.91;5001251;28;20014;-49
2023/03/15 09:52:28;;;;;;;;;;;;;;;6.62;100.00;101006.31;5007639;28;19984;-48
2023/03/15 09:54:56;;;;;;;;;;;;;;;5.59;100.00;100916.66;5009960;28;20394;-48
2023/03/15 09:57:27;;;;;;;;;;;;;;;4.74;100.00;100873.19;5005425;28;20401;-49
2023/03/15 09:59:53;;;;;;;;;;;;;;;4.85;100.00;100891.28;5001825;28;19929;-49
2023/03/15 10:02:20;;;;;;;;;;;;;;;4.73;100.00;100909.75;5008159;28;19921;-50
2023/03/15 10:04:46;;;;;;;;;;;;;;;5.01;100.00;100923.97;5026462;28;20001;-48
2023/03/15 10:07:12;;;;;;;;;;;;;;;5.47;100.00;100939.38;5008829;28;19917;-49
2023/03/15 10:09:38;;;;;;;;;;;;;;;6.05;100.00;100961.00;5005910;28;20196;-48
2023/03/15 10:12:16;;;;;;;;;;;;;;;6.48;100.00;100946.38;5010865;28;20007;-49
2023/03/15 10:14:41;;;;;;;;;;;;;;;6.01;100.00;100841.56;5010022;28;19917;-49
2023/03/15 10:17:14;;;;;;;;;;;;;;;6.41;100.00;100824.25;5009300;28;19979;-48
2023/03/15 10:20:00;;;;;;;;;;;;;;;6.07;100.00;100780.28;5010443;28;19917;-48
2023/03/15 10:22:29;;;;;;;;;;;;;;;6.31;100.00;100749.06;5007600;28;19979;-49
2023/03/15 10:25:13;;;;;;;;;;;;;;;6.00;100.00;100696.63;5007310;28;19913;-49
2023/03/15 10:27:48;;;;;;;;;;;;;;;6.56;100.00;100729.75;5008362;28;19994;-49
2023/03/15 10:30:20;;;;;;;;;;;;;;;6.26;100.00;100668.84;5002599;28;19933;-48
2023/03/15 10:32:46;;;;;;;;;;;;;;;6.45;100.00;100631.50;5010254;28;20268;-50
2023/03/15 10:35:16;;;;;;;;;;;;;;;6.61;100.00;100558.31;5007217;28;19959;-49
2023/03/15 10:37:41;;;;;;;;;;;;;;;6.24;100.00;100436.00;5006546;28;19920;-49
2023/03/15 10:40:14;;;;;;;;;;;;;;;6.67;100.00;100364.66;5009137;28;19928;-51
2023/03/15 10:42:40;;;;;;;;;;;;;;;7.25;100.00;100259.03;5008064;28;19991;-48
2023/03/15 10:45:11;;;;;;;;;;;;;;;7.01;100.00;100120.69;5002558;28;20355;-49
2023/03/15 10:47:40;;;;;;;;;;;;;;;7.54;100.00;100095.00;5006152;28;19979;-49
2023/03/15 10:50:05;;;;;;;;;;;;;;;7.17;100.00;100013.94;5007778;28;19944;-49
2023/03/15 10:52:34;;;;;;;;;;;;;;;6.32;100.00;99977.25;5008515;28;19917;-48
2023/03/15 10:55:20;;;;;;;;;;;;;;;7.43;100.00;99976.25;5015602;28;20309;-49
2023/03/15 10:58:09;;;;;;;;;;;;;;;7.52;100.00;99876.28;5013452;28;19980;-49
2023/03/15 11:00:35;;;;;;;;;;;;;;;7.68;100.00;99719.81;5008465;28;19917;-50
2023/03/15 11:03:00;;;;;;;;;;;;;;;7.78;100.00;99613.75;5007698;28;19921;-49
2023/03/15 11:05:28;;;;;;;;;;;;;;;7.08;100.00;99531.56;5011559;28;19978;-51
2023/03/15 11:07:55;;;;;;;;;;;;;;;6.22;100.00;99572.28;5009275;28;20413;-51
2023/03/15 11:10:21;;;;;;;;;;;;;;;6.62;100.00;99639.47;5000850;28;20521;-52
2023/03/15 11:12:47;;;;;;;;;;;;;;;6.60;100.00;99620.69;5005624;28;19921;-49
2023/03/15 11:15:13;;;;;;;;;;;;;;;7.21;100.00;99541.72;5026326;28;19996;-49
2023/03/15 11:17:43;;;;;;;;;;;;;;;7.31;100.00;99410.94;5003554;28;19917;-51
2023/03/15 11:20:17;;;;;;;;;;;;;;;7.26;100.00;99311.97;5002425;28;19925;-48
2023/03/15 11:22:43;;;;;;;;;;;;;;;7.28;100.00;99223.13;5004688;28;19928;-51
2023/03/15 11:25:12;;;;;;;;;;;;;;;7.30;100.00;99199.19;5002733;28;19921;-50
2023/03/15 11:27:37;;;;;;;;;;;;;;;7.09;100.00;99213.16;5003297;28;19917;-49
2023/03/15 11:30:03;;;;;;;;;;;;;;;7.37;100.00;99204.19;5007444;28;19931;-50
2023/03/15 11:32:29;;;;;;;;;;;;;;;7.81;100.00;99244.50;5030220;28;20140;-51
2023/03/15 11:34:54;;;;;;;;;;;;;;;7.83;100.00;99237.63;5028257;28;20385;-50
2023/03/15 11:37:21;;;;;;;;;;;;;;;7.61;100.00;99241.41;5006947;28;19917;-52
2023/03/15 11:39:55;;;;;;;;;;;;;;;7.31;100.00;99200.03;5027510;28;20527;-51
2023/03/15 11:42:22;;;;;;;;;;;;;;;7.43;100.00;99117.81;5011394;28;20011;-51
2023/03/15 11:44:47;;;;;;;;;;;;;;;8.90;100.00;99096.06;5004774;28;19917;-52
2023/03/15 11:47:15;;;;;;;;;;;;;;;8.75;100.00;99020.22;5027577;28;19928;-50
2023/03/15 11:49:41;;;;;;;;;;;;;;;8.30;100.00;99010.13;5006374;28;20390;-53
2023/03/15 11:52:06;;;;;;;;;;;;;;;7.96;100.00;98994.66;5006083;28;19952;-50
2023/03/15 11:54:31;;;;;;;;;;;;;;;8.64;100.00;98949.47;5010736;28;19917;-52
2023/03/15 11:56:56;;;;;;;;;;;;;;;8.49;100.00;98927.63;5012124;28;19947;-50
2023/03/15 11:59:36;;;;;;;;;;;;;;;8.19;100.00;98932.56;5006633;28;20271;-50
2023/03/15 12:02:01;;;;;;;;;;;;;;;8.28;100.00;98929.78;5002668;28;19921;-52
2023/03/15 12:04:26;;;;;;;;;;;;;;;8.06;100.00;98915.78;5005618;28;19917;-49
2023/03/15 12:06:53;;;;;;;;;;;;;;;8.69;100.00;98940.78;5015440;28;19921;-51
2023/03/15 12:09:30;;;;;;;;;;;;;;;7.95;100.00;98924.53;5007106;28;19917;-52
2023/03/15 12:11:56;;;;;;;;;;;;;;;7.44;100.00;98965.81;4997688;28;19933;-51
2023/03/15 12:14:26;;;;;;;;;;;;;;;7.44;100.00;98985.47;5006050;28;19918;-51
2023/03/15 12:16:52;;;;;;;;;;;;;;;8.08;100.00;98967.88;5027658;28;20965;-50
2023/03/15 12:19:18;;;;;;;;;;;;;;;8.18;100.00;98967.63;5005668;28;19917;-52
2023/03/15 12:21:44;;;;;;;;;;;;;;;7.70;100.00;98966.97;5003129;28;19932;-51
2023/03/15 12:24:42;;;;;;;;;;;;;;;8.73;100.00;98947.50;5006293;28;19956;-50
2023/03/15 12:27:14;;;;;;;;;;;;;;;7.90;100.00;98928.94;4989632;28;19932;-49
2023/03/15 12:29:40;;;;;;;;;;;;;;;8.16;100.00;98906.97;5031141;28;19952;-51
2023/03/15 12:32:07;;;;;;;;;;;;;;;7.77;100.00;98973.66;5005848;28;19972;-52
2023/03/15 12:34:48;;;;;;;;;;;;;;;8.27;100.00;98938.34;5002327;28;19921;-51
2023/03/15 12:37:24;;;;;;;;;;;;;;;8.30;100.00;98922.03;5007818;28;20025;-50
2023/03/15 12:40:00;;;;;;;;;;;;;;;8.78;100.00;98907.19;5007260;28;20314;-49
2023/03/15 12:42:29;;;;;;;;;;;;;;;8.60;100.00;98925.63;5024981;28;20477;-53
2023/03/15 12:45:02;;;;;;;;;;;;;;;8.71;100.00;98907.34;5011445;28;19963;-52
2023/03/15 12:47:27;;;;;;;;;;;;;;;10.35;100.00;98900.00;5003485;28;19917;-52